map of EVE home
EVE - Airport
Location
City:  Evenes, Norway
Name:Harstad/Narvik
ICAO:ENEV
IATA:EVE

Details
Type:Airport (Aerodrome, Airfield)
Use:Public/Civil, International (customs port of entry)
Latitude:6829'29"N (68.491300)
Longitude:1640'41"E (16.678108)
Datum:WGS 1984
Elevation:84 ft (26 m)
Variation:7.23E (WMM2015 magnetic declination)
0.22 annual change
Runways:1
Longest:9236 × 148 ft (2815 × 45 m), paved

Time
Time Zone:UTC+1 (DST+2)
Local Time:

Weather
METAR:ENEV 141250Z 00000KT 9999 BKN043 M02/M02 Q0987 RMK WIND 1400FT 15005KT

Related Locations
Nearby:
Farthest:NZTB: 11614 mi / 18691 km
Terra Nova Bay [Mario Zucchelli Station], AQ

Find:

   beyond  
but within

Other Information
Maps:
NOTAMs:
Links:
Sources:

  
flag of Norway   

Airport Diagram

Airport diagram for EVE

Larger airport diagram (OBSOLETE) from NGA

Sectional Chart

Flight Planning
at skyvector.com

Satellite Image

Google Maps Satellite view

 

Copyright © 2004-2017 Karl L. Swartz. All rights reserved.
The Great Circle Mapper name and logo are trademarks of the Great Circle Mapper.
All other trademarks mentioned herein belong to their respective owners.
Please see credits for attibutions and further copyright information.

  Follow gcmap on Facebook Follow gcmap on Twitter Follow gcmap on Google+ GCmap on LinkedIn

hCard Microformat

Geo Microformat